Goldfield, Iowa
Current Conditions -  °F | °C
As of 3:55 AM on Tuesday 21 Oct 2014 (Local Time) from KCAV Reporting Station
Clear Clear  
Wind Chill: 34°   Ceiling: Unl
Heat Index: 39°   Visibility: 10mi
Dew Point: 39°   Wind: 7mph
Humidity: 100%   Direction: 90°E
Pressure: 30.09"   Gusts: NA
Location:  42.74°N, 93.92°W
Report Text: KCAV 210855Z AUTO 09006KT 10SM CLR 04/04 A3009 RMK AO2
Loading
Personal Weather Stations






























Interactive Weather Map
Tropical Storm Tracking
New forecast layout! Learn more

10-Day Weather Forecast

Advertisements
Track Severe Weather on mobile